Time;durP1;ratioP1;P1;durP2;ratioP2;P2;SDS_P1;SDS_P2;PMS_P1;PMS_P2;Temp;Humidity;BMP_temperature;BMP_pressure;BME280_temperature;BME280_humidity;BME280_pressure;Samples;Min_cycle;Max_cycle;Signal;HPM_P1;HPM_P2
2022/06/09 00:02:25;;;;;;;5.15;3.38;;;;;;;;;;4974212;28;20026;-85
2022/06/09 00:04:51;;;;;;;5.18;3.83;;;;;;;;;;4974930;28;20027;-83
2022/06/09 00:07:21;;;;;;;9.85;3.75;;;;;;;;;;4974509;28;20026;-85
2022/06/09 00:09:56;;;;;;;5.22;3.60;;;;;;;;;;4957377;28;20079;-85
2022/06/09 00:12:23;;;;;;;9.43;3.75;;;;;;;;;;4974802;28;20023;-84
2022/06/09 00:14:49;;;;;;;9.10;4.85;;;;;;;;;;4974671;28;20027;-85
2022/06/09 00:17:15;;;;;;;10.30;4.82;;;;;;;;;;4970476;28;20095;-86
2022/06/09 00:19:41;;;;;;;10.57;4.75;;;;;;;;;;4986340;28;20042;-87
2022/06/09 00:22:07;;;;;;;13.98;4.68;;;;;;;;;;4990694;28;20023;-86
2022/06/09 00:24:33;;;;;;;11.70;4.88;;;;;;;;;;4990239;28;20034;-86
2022/06/09 00:26:59;;;;;;;6.07;4.07;;;;;;;;;;4959203;28;20034;-86
2022/06/09 00:29:25;;;;;;;10.52;5.05;;;;;;;;;;4974415;28;20030;-87
2022/06/09 00:31:51;;;;;;;8.57;4.75;;;;;;;;;;4975662;28;20457;-87
2022/06/09 00:34:17;;;;;;;9.52;5.05;;;;;;;;;;4975125;28;20027;-88
2022/06/09 00:36:43;;;;;;;11.50;5.80;;;;;;;;;;4974158;28;20114;-87
2022/06/09 00:39:09;;;;;;;12.32;4.80;;;;;;;;;;4973521;28;20065;-87
2022/06/09 00:41:39;;;;;;;9.85;5.30;;;;;;;;;;4973834;28;20026;-87
2022/06/09 00:44:18;;;;;;;12.10;5.10;;;;;;;;;;4956938;28;20050;-87
2022/06/09 00:46:46;;;;;;;9.40;5.18;;;;;;;;;;4956516;28;20377;-87
2022/06/09 00:49:21;;;;;;;12.15;4.00;;;;;;;;;;4973822;28;20057;-86
2022/06/09 00:51:49;;;;;;;8.90;2.85;;;;;;;;;;4974727;28;20023;-87
2022/06/09 00:54:17;;;;;;;11.23;4.00;;;;;;;;;;4956347;28;20085;-88
2022/06/09 00:56:50;;;;;;;9.40;4.10;;;;;;;;;;4973187;28;20030;-88
2022/06/09 00:59:18;;;;;;;12.57;4.47;;;;;;;;;;4956213;28;20093;-88
2022/06/09 01:01:44;;;;;;;10.18;4.15;;;;;;;;;;4955679;28;20089;-89
2022/06/09 01:04:12;;;;;;;14.25;4.28;;;;;;;;;;4973144;28;20027;-89
2022/06/09 01:06:49;;;;;;;13.70;4.07;;;;;;;;;;4973855;28;20126;-90
2022/06/09 01:09:26;;;;;;;8.27;4.28;;;;;;;;;;4973661;28;20026;-89
2022/06/09 01:11:53;;;;;;;11.48;4.82;;;;;;;;;;4955894;28;20023;-89
2022/06/09 01:14:21;;;;;;;11.57;4.82;;;;;;;;;;4973619;28;20412;-89
2022/06/09 01:16:59;;;;;;;11.75;4.63;;;;;;;;;;4973028;28;20519;-89
2022/06/09 01:19:49;;;;;;;15.98;4.50;;;;;;;;;;4965389;28;20515;-89
2022/06/09 01:22:21;;;;;;;6.63;3.97;;;;;;;;;;4947510;29;20035;-88
2022/06/09 01:25:12;;;;;;;9.27;4.65;;;;;;;;;;4952983;29;20110;-89
2022/06/09 01:27:58;;;;;;;6.32;4.25;;;;;;;;;;4962290;28;20042;-88
2022/06/09 01:31:01;;;;;;;12.65;4.80;;;;;;;;;;4975520;28;20031;-89
2022/06/09 01:33:34;;;;;;;13.05;4.13;;;;;;;;;;4879522;29;20033;-89
2022/06/09 01:36:05;;;;;;;14.52;4.65;;;;;;;;;;4962690;28;20041;-88
2022/06/09 01:38:31;;;;;;;12.73;4.53;;;;;;;;;;4975953;28;20019;-88
2022/06/09 01:40:57;;;;;;;14.98;4.80;;;;;;;;;;4976933;28;20042;-88
2022/06/09 01:43:23;;;;;;;13.60;5.47;;;;;;;;;;4959492;28;20041;-88
2022/06/09 01:45:53;;;;;;;16.17;5.80;;;;;;;;;;4959238;28;20023;-88
2022/06/09 01:48:20;;;;;;;6.97;4.10;;;;;;;;;;4976805;28;20022;-87
2022/06/09 01:50:55;;;;;;;8.02;4.35;;;;;;;;;;4976876;28;20030;-88
2022/06/09 01:53:41;;;;;;;8.07;4.28;;;;;;;;;;4960562;28;20026;-87
2022/06/09 01:56:15;;;;;;;14.95;4.93;;;;;;;;;;4976828;28;20131;-87
2022/06/09 01:58:53;;;;;;;10.10;4.50;;;;;;;;;;4959391;28;20027;-87
2022/06/09 02:01:21;;;;;;;10.45;4.57;;;;;;;;;;4976173;28;20031;-87
2022/06/09 02:03:49;;;;;;;10.05;5.03;;;;;;;;;;4976709;28;20106;-88
2022/06/09 02:06:16;;;;;;;12.57;4.50;;;;;;;;;;4976403;28;20031;-90
2022/06/09 02:08:42;;;;;;;13.73;4.93;;;;;;;;;;4958958;28;20049;-87
2022/06/09 02:11:09;;;;;;;10.43;5.18;;;;;;;;;;4976036;28;20043;-88
2022/06/09 02:13:39;;;;;;;7.95;4.53;;;;;;;;;;4958728;28;20031;-87
2022/06/09 02:16:06;;;;;;;11.77;5.18;;;;;;;;;;4976057;28;20027;-87
2022/06/09 02:18:35;;;;;;;13.02;4.38;;;;;;;;;;4958506;28;20035;-87
2022/06/09 02:21:04;;;;;;;11.70;4.50;;;;;;;;;;4958688;28;20487;-87
2022/06/09 02:23:31;;;;;;;9.15;4.70;;;;;;;;;;4958732;28;20019;-86
2022/06/09 02:25:57;;;;;;;13.68;4.95;;;;;;;;;;4958497;28;20400;-87
2022/06/09 02:28:23;;;;;;;9.80;4.20;;;;;;;;;;4975548;28;20100;-86
2022/06/09 02:30:50;;;;;;;14.00;5.10;;;;;;;;;;4975717;28;20537;-87
2022/06/09 02:33:16;;;;;;;10.70;4.57;;;;;;;;;;4975523;28;20055;-87
2022/06/09 02:35:42;;;;;;;13.05;5.30;;;;;;;;;;4975725;28;20031;-87
2022/06/09 02:38:08;;;;;;;13.05;5.13;;;;;;;;;;4976633;28;20650;-86
2022/06/09 02:40:35;;;;;;;11.00;5.00;;;;;;;;;;4956659;28;20023;-87
2022/06/09 02:43:01;;;;;;;11.18;4.63;;;;;;;;;;4975486;28;20425;-87
2022/06/09 02:45:28;;;;;;;10.43;4.63;;;;;;;;;;4975662;28;20019;-87
2022/06/09 02:47:54;;;;;;;8.18;4.78;;;;;;;;;;4975463;28;20082;-86
2022/06/09 02:50:20;;;;;;;13.88;4.85;;;;;;;;;;4975239;28;20477;-85
2022/06/09 02:52:46;;;;;;;10.25;5.07;;;;;;;;;;4958431;28;20030;-86
2022/06/09 02:55:12;;;;;;;15.43;5.35;;;;;;;;;;4975464;28;20066;-85
2022/06/09 02:57:38;;;;;;;10.65;5.43;;;;;;;;;;4975488;28;20393;-86
2022/06/09 03:00:06;;;;;;;12.82;5.60;;;;;;;;;;4975325;28;20018;-86
2022/06/09 03:02:33;;;;;;;18.55;5.78;;;;;;;;;;4975443;28;20046;-84
2022/06/09 03:04:59;;;;;;;12.68;5.10;;;;;;;;;;4975416;28;20601;-86
2022/06/09 03:07:26;;;;;;;13.35;5.78;;;;;;;;;;4975651;28;20114;-86
2022/06/09 03:09:53;;;;;;;12.38;5.88;;;;;;;;;;4975405;28;20030;-85
2022/06/09 03:12:19;;;;;;;12.30;5.35;;;;;;;;;;4975280;28;20022;-84
2022/06/09 03:14:45;;;;;;;14.70;5.90;;;;;;;;;;4958800;28;20177;-86
2022/06/09 03:17:12;;;;;;;17.00;6.25;;;;;;;;;;4958119;28;20506;-86
2022/06/09 03:19:38;;;;;;;20.13;5.88;;;;;;;;;;4966589;28;20206;-86
2022/06/09 03:22:05;;;;;;;16.13;5.40;;;;;;;;;;4954767;28;20023;-86
2022/06/09 03:24:31;;;;;;;16.08;6.10;;;;;;;;;;4959963;28;20500;-86
2022/06/09 03:26:57;;;;;;;11.70;4.60;;;;;;;;;;4975464;28;20131;-86
2022/06/09 03:29:24;;;;;;;12.63;4.88;;;;;;;;;;4975475;28;20114;-86
2022/06/09 03:31:50;;;;;;;12.60;6.00;;;;;;;;;;4974532;28;20465;-86
2022/06/09 03:34:18;;;;;;;14.52;5.40;;;;;;;;;;4957756;28;20045;-87
2022/06/09 03:36:44;;;;;;;14.20;5.25;;;;;;;;;;4974787;28;20025;-87
2022/06/09 03:39:11;;;;;;;15.50;4.15;;;;;;;;;;4976008;28;20031;-88
2022/06/09 03:41:37;;;;;;;12.65;4.68;;;;;;;;;;4958337;28;20050;-86
2022/06/09 03:44:03;;;;;;;16.15;5.78;;;;;;;;;;4976571;28;20033;-88
2022/06/09 03:46:29;;;;;;;20.27;5.03;;;;;;;;;;4959029;28;20058;-87
2022/06/09 03:48:55;;;;;;;18.42;4.63;;;;;;;;;;4986030;28;20045;-86
2022/06/09 03:51:21;;;;;;;10.55;5.47;;;;;;;;;;4975110;28;20082;-86
2022/06/09 03:53:47;;;;;;;12.50;5.07;;;;;;;;;;4974627;28;20034;-86
2022/06/09 03:56:15;;;;;;;17.45;5.05;;;;;;;;;;4973906;28;20125;-86
2022/06/09 03:58:42;;;;;;;8.60;4.45;;;;;;;;;;4992000;28;20113;-86
2022/06/09 04:01:11;;;;;;;17.00;4.85;;;;;;;;;;4974838;28;20023;-86
2022/06/09 04:03:37;;;;;;;18.45;5.18;;;;;;;;;;4957576;28;20026;-87
2022/06/09 04:06:03;;;;;;;14.88;5.22;;;;;;;;;;4974648;28;20034;-86
2022/06/09 04:08:29;;;;;;;10.00;4.25;;;;;;;;;;4979548;28;20026;-87
2022/06/09 04:10:56;;;;;;;15.75;5.20;;;;;;;;;;4963078;28;20109;-87
2022/06/09 04:13:22;;;;;;;14.73;5.55;;;;;;;;;;4976500;28;20034;-86
2022/06/09 04:15:48;;;;;;;13.27;5.55;;;;;;;;;;4961437;28;20027;-86
2022/06/09 04:18:14;;;;;;;9.98;4.65;;;;;;;;;;4969564;28;20026;-86
2022/06/09 04:20:40;;;;;;;17.92;5.18;;;;;;;;;;4978718;28;20532;-86
2022/06/09 04:23:06;;;;;;;20.38;5.00;;;;;;;;;;4958886;28;20155;-86
2022/06/09 04:25:32;;;;;;;14.18;4.85;;;;;;;;;;4971386;28;20033;-86
2022/06/09 04:27:58;;;;;;;24.80;5.55;;;;;;;;;;4994786;28;20026;-86
2022/06/09 04:30:24;;;;;;;18.58;5.30;;;;;;;;;;4977158;28;20030;-87
2022/06/09 04:32:50;;;;;;;8.27;4.20;;;;;;;;;;4967902;28;20026;-86
2022/06/09 04:35:16;;;;;;;13.90;5.80;;;;;;;;;;4974897;28;20063;-86
2022/06/09 04:38:01;;;;;;;12.35;4.45;;;;;;;;;;4983424;28;20488;-86
2022/06/09 04:40:35;;;;;;;15.55;4.18;;;;;;;;;;4958335;28;20404;-86
2022/06/09 04:43:01;;;;;;;12.35;3.83;;;;;;;;;;4958368;28;20027;-86
2022/06/09 04:45:27;;;;;;;8.93;4.38;;;;;;;;;;4975304;28;20129;-87
2022/06/09 04:47:53;;;;;;;12.15;3.30;;;;;;;;;;4965816;28;20113;-86
2022/06/09 04:50:19;;;;;;;18.48;4.50;;;;;;;;;;4962514;28;20062;-86
2022/06/09 04:52:46;;;;;;;12.90;3.88;;;;;;;;;;4981826;28;20416;-86
2022/06/09 04:55:12;;;;;;;14.77;4.63;;;;;;;;;;4985136;28;20105;-87
2022/06/09 04:57:41;;;;;;;18.42;4.43;;;;;;;;;;4958714;28;20019;-87
2022/06/09 05:00:08;;;;;;;17.15;4.57;;;;;;;;;;4981533;28;20026;-86
2022/06/09 05:02:37;;;;;;;16.88;4.75;;;;;;;;;;4975461;28;20038;-86
2022/06/09 05:05:03;;;;;;;15.60;4.30;;;;;;;;;;4957298;28;20031;-86
2022/06/09 05:07:32;;;;;;;13.32;4.03;;;;;;;;;;4959986;28;20035;-85
2022/06/09 05:09:58;;;;;;;13.05;4.07;;;;;;;;;;4957314;28;20030;-86
2022/06/09 05:12:24;;;;;;;15.43;4.15;;;;;;;;;;4960772;28;20452;-86
2022/06/09 05:14:52;;;;;;;12.88;4.53;;;;;;;;;;4979278;28;20472;-86
2022/06/09 05:17:18;;;;;;;9.68;4.03;;;;;;;;;;4978655;28;20038;-86
2022/06/09 05:19:45;;;;;;;12.77;4.00;;;;;;;;;;4961614;28;20109;-86
2022/06/09 05:22:11;;;;;;;13.68;3.65;;;;;;;;;;4994324;28;20027;-86
2022/06/09 05:24:37;;;;;;;13.65;4.28;;;;;;;;;;4969143;28;20034;-86
2022/06/09 05:27:04;;;;;;;18.75;4.22;;;;;;;;;;4961558;28;20091;-86
2022/06/09 05:29:30;;;;;;;28.02;4.75;;;;;;;;;;4962811;28;20026;-87
2022/06/09 05:31:56;;;;;;;8.25;3.00;;;;;;;;;;4988451;28;20465;-87
2022/06/09 05:34:22;;;;;;;11.73;4.38;;;;;;;;;;4977910;28;20097;-86
2022/06/09 05:36:48;;;;;;;15.13;3.90;;;;;;;;;;4981762;28;20014;-87
2022/06/09 05:44:52;;;;;;;10.57;3.65;;;;;;;;;;4979730;28;20054;-86
2022/06/09 05:47:21;;;;;;;18.02;3.78;;;;;;;;;;4959622;28;20043;-87
2022/06/09 05:49:48;;;;;;;11.57;4.60;;;;;;;;;;4976425;28;20027;-87
2022/06/09 05:52:14;;;;;;;11.55;3.25;;;;;;;;;;4977756;28;20027;-87
2022/06/09 05:54:41;;;;;;;13.55;3.80;;;;;;;;;;4977213;28;20062;-87
2022/06/09 05:57:07;;;;;;;13.95;3.70;;;;;;;;;;4977008;28;20370;-86
2022/06/09 05:59:33;;;;;;;14.95;3.17;;;;;;;;;;4960141;28;20023;-87
2022/06/09 06:01:59;;;;;;;11.07;2.78;;;;;;;;;;4967096;28;20030;-88
2022/06/09 06:04:25;;;;;;;13.75;3.63;;;;;;;;;;4975142;28;20346;-87
2022/06/09 06:06:51;;;;;;;9.18;3.53;;;;;;;;;;4974244;28;20053;-87
2022/06/09 06:09:19;;;;;;;13.75;2.90;;;;;;;;;;4992923;28;20023;-86
2022/06/09 06:11:46;;;;;;;8.35;3.28;;;;;;;;;;4978583;28;20031;-86
2022/06/09 06:14:12;;;;;;;10.00;3.42;;;;;;;;;;4978258;28;20023;-87
2022/06/09 06:16:39;;;;;;;17.27;3.42;;;;;;;;;;4977002;28;20103;-88
2022/06/09 06:19:06;;;;;;;7.03;2.88;;;;;;;;;;4968904;28;20019;-87
2022/06/09 06:21:32;;;;;;;12.32;2.67;;;;;;;;;;4978258;28;20020;-87
2022/06/09 06:23:58;;;;;;;11.63;2.65;;;;;;;;;;4960193;28;20026;-87
2022/06/09 06:26:24;;;;;;;5.30;2.67;;;;;;;;;;4977254;28;20027;-86
2022/06/09 06:28:51;;;;;;;9.98;2.75;;;;;;;;;;4978079;28;20041;-87
2022/06/09 06:31:17;;;;;;;9.13;1.67;;;;;;;;;;4960145;28;20117;-87
2022/06/09 06:33:43;;;;;;;7.68;2.08;;;;;;;;;;4960673;28;20022;-86
2022/06/09 06:36:09;;;;;;;15.68;2.75;;;;;;;;;;4977810;28;20033;-86
2022/06/09 06:38:35;;;;;;;14.18;3.30;;;;;;;;;;4960417;28;20027;-86
2022/06/09 06:41:03;;;;;;;16.77;3.42;;;;;;;;;;4988551;28;20054;-87
2022/06/09 06:43:29;;;;;;;9.55;1.83;;;;;;;;;;4979430;28;20077;-86
2022/06/09 06:45:55;;;;;;;10.40;2.63;;;;;;;;;;4979569;28;20022;-87
2022/06/09 06:48:21;;;;;;;15.27;3.20;;;;;;;;;;4996996;28;20420;-84
2022/06/09 06:50:47;;;;;;;6.70;2.33;;;;;;;;;;4995441;28;20030;-87
2022/06/09 06:53:14;;;;;;;5.63;1.80;;;;;;;;;;4960692;28;20035;-86
2022/06/09 06:55:40;;;;;;;10.65;3.05;;;;;;;;;;4976580;28;20057;-86
2022/06/09 06:58:07;;;;;;;15.18;2.95;;;;;;;;;;4960127;28;20023;-87
2022/06/09 07:00:34;;;;;;;9.95;2.25;;;;;;;;;;4976945;28;20551;-87
2022/06/09 07:03:00;;;;;;;7.35;2.88;;;;;;;;;;4977056;28;20027;-85
2022/06/09 07:05:26;;;;;;;9.45;3.60;;;;;;;;;;4959480;28;20114;-86
2022/06/09 07:07:53;;;;;;;9.60;1.95;;;;;;;;;;4959076;28;20034;-86
2022/06/09 07:10:19;;;;;;;9.75;2.60;;;;;;;;;;4976916;28;20037;-86
2022/06/09 07:12:46;;;;;;;7.65;2.28;;;;;;;;;;4958960;28;20031;-85
2022/06/09 07:15:13;;;;;;;11.48;2.47;;;;;;;;;;4982102;28;20027;-87
2022/06/09 07:17:39;;;;;;;9.70;2.75;;;;;;;;;;4975578;28;20113;-87
2022/06/09 07:20:06;;;;;;;8.88;2.40;;;;;;;;;;4975403;28;20077;-87
2022/06/09 07:22:32;;;;;;;9.43;2.15;;;;;;;;;;4976786;28;20535;-86
2022/06/09 07:24:58;;;;;;;9.13;1.90;;;;;;;;;;4975901;28;20023;-87
2022/06/09 07:27:24;;;;;;;7.20;1.50;;;;;;;;;;4974921;28;20035;-87
2022/06/09 07:29:50;;;;;;;7.72;1.70;;;;;;;;;;4976654;28;20023;-86
2022/06/09 07:32:17;;;;;;;7.53;1.55;;;;;;;;;;4976330;28;20035;-86
2022/06/09 07:34:43;;;;;;;9.48;1.85;;;;;;;;;;4975882;28;20080;-87
2022/06/09 07:37:10;;;;;;;13.27;2.15;;;;;;;;;;4975769;28;20034;-85
2022/06/09 07:39:36;;;;;;;6.45;2.25;;;;;;;;;;4976626;28;20034;-88
2022/06/09 07:42:02;;;;;;;8.82;2.33;;;;;;;;;;4964104;28;20026;-86
2022/06/09 07:44:28;;;;;;;12.13;2.00;;;;;;;;;;4987793;28;20054;-87
2022/06/09 07:46:54;;;;;;;7.30;1.88;;;;;;;;;;4958245;28;20479;-87
2022/06/09 07:49:20;;;;;;;9.15;2.22;;;;;;;;;;4975183;28;20023;-88
2022/06/09 07:51:46;;;;;;;10.18;1.95;;;;;;;;;;4975317;28;20424;-85
2022/06/09 07:54:12;;;;;;;6.45;1.90;;;;;;;;;;4976181;28;20023;-88
2022/06/09 07:56:38;;;;;;;11.68;2.28;;;;;;;;;;4957289;28;20094;-87
2022/06/09 07:59:08;;;;;;;8.68;2.33;;;;;;;;;;4974859;28;20139;-84
2022/06/09 08:01:35;;;;;;;14.27;2.00;;;;;;;;;;4974209;28;20030;-89
2022/06/09 08:04:01;;;;;;;10.57;1.85;;;;;;;;;;4974584;28;20034;-85
2022/06/09 08:06:27;;;;;;;11.68;2.50;;;;;;;;;;4974304;28;20027;-86
2022/06/09 08:08:55;;;;;;;11.43;2.22;;;;;;;;;;4977635;28;20026;-87
2022/06/09 08:11:22;;;;;;;8.07;1.98;;;;;;;;;;4992914;28;20030;-88
2022/06/09 08:13:48;;;;;;;9.05;1.77;;;;;;;;;;4993523;28;20387;-86
2022/06/09 08:16:14;;;;;;;9.63;2.15;;;;;;;;;;4987710;28;20086;-87
2022/06/09 08:18:40;;;;;;;7.93;1.05;;;;;;;;;;4973723;28;20062;-86
2022/06/09 08:21:06;;;;;;;8.38;1.42;;;;;;;;;;4973978;28;20031;-87
2022/06/09 08:23:33;;;;;;;8.73;1.92;;;;;;;;;;4958206;28;20074;-88
2022/06/09 08:26:02;;;;;;;7.68;2.05;;;;;;;;;;4975468;28;20031;-87
2022/06/09 08:28:28;;;;;;;9.85;2.70;;;;;;;;;;4975312;28;20106;-86
2022/06/09 08:30:55;;;;;;;8.20;2.50;;;;;;;;;;4957440;28;20030;-87
2022/06/09 08:33:22;;;;;;;11.73;1.92;;;;;;;;;;4956989;28;20382;-89
2022/06/09 08:35:48;;;;;;;3.63;1.75;;;;;;;;;;4956326;28;20030;-87
2022/06/09 08:38:14;;;;;;;7.47;2.60;;;;;;;;;;4955892;28;20122;-87
2022/06/09 08:40:55;;;;;;;13.18;3.28;;;;;;;;;;4956060;28;20113;-87
2022/06/09 08:43:21;;;;;;;;;;;;;;;;;;4957235;28;20150;-89
2022/06/09 08:45:48;;;;;;;10.98;3.10;;;;;;;;;;4956168;28;20433;-87
2022/06/09 08:48:16;;;;;;;14.25;3.05;;;;;;;;;;4956366;28;20034;-87
2022/06/09 08:50:46;;;;;;;8.50;3.10;;;;;;;;;;4973797;28;20122;-86
2022/06/09 08:53:21;;;;;;;5.97;2.20;;;;;;;;;;4973967;28;20065;-87
2022/06/09 08:55:52;;;;;;;9.77;2.90;;;;;;;;;;4956679;28;20518;-87
2022/06/09 08:58:18;;;;;;;9.00;3.28;;;;;;;;;;4979843;28;20056;-86
2022/06/09 09:00:47;;;;;;;8.18;3.33;;;;;;;;;;4964667;28;20149;-88
2022/06/09 09:03:17;;;;;;;8.77;3.17;;;;;;;;;;4984890;28;20027;-89
2022/06/09 09:06:09;;;;;;;11.32;3.05;;;;;;;;;;4982885;28;20097;-88
2022/06/09 09:08:36;;;;;;;13.40;4.03;;;;;;;;;;4968280;28;20095;-87
2022/06/09 09:11:02;;;;;;;8.95;2.55;;;;;;;;;;4983669;28;20035;-87
2022/06/09 09:13:46;;;;;;;3.30;1.00;;;;;;;;;;4973578;28;20097;-85
2022/06/09 09:16:25;;;;;;;9.75;2.42;;;;;;;;;;4973267;28;20042;-87
2022/06/09 09:18:53;;;;;;;10.93;1.88;;;;;;;;;;4952423;29;20444;-87
2022/06/09 09:21:37;;;;;;;15.02;2.20;;;;;;;;;;4952678;28;20441;-87
2022/06/09 09:24:17;;;;;;;11.40;2.58;;;;;;;;;;4954119;28;20485;-87
2022/06/09 09:26:43;;;;;;;11.45;2.38;;;;;;;;;;4971687;28;20023;-88
2022/06/09 09:29:18;;;;;;;8.32;1.60;;;;;;;;;;4973242;28;20499;-87
2022/06/09 09:31:53;;;;;;;8.38;1.83;;;;;;;;;;4973441;28;20027;-85
2022/06/09 09:34:22;;;;;;;7.80;2.00;;;;;;;;;;4973267;28;20031;-87
2022/06/09 09:36:50;;;;;;;8.82;2.10;;;;;;;;;;4973199;28;20369;-87
2022/06/09 09:39:30;;;;;;;8.20;1.90;;;;;;;;;;4955828;28;20042;-87
2022/06/09 09:41:57;;;;;;;8.45;1.63;;;;;;;;;;4955282;29;20033;-86
2022/06/09 09:44:24;;;;;;;11.85;1.70;;;;;;;;;;4955683;28;20028;-86
2022/06/09 09:46:53;;;;;;;7.97;1.80;;;;;;;;;;4972818;28;20452;-87
2022/06/09 09:49:22;;;;;;;11.13;2.28;;;;;;;;;;4976458;28;20065;-86
2022/06/09 09:51:49;;;;;;;6.65;1.75;;;;;;;;;;4958989;28;20030;-87
2022/06/09 09:54:19;;;;;;;4.82;1.60;;;;;;;;;;4959704;28;20027;-91
2022/06/09 09:56:45;;;;;;;6.22;1.42;;;;;;;;;;4959323;28;20117;-87
2022/06/09 09:59:37;;;;;;;2.05;0.88;;;;;;;;;;4959177;28;20553;-88
2022/06/09 10:10:56;;;;;;;7.10;1.80;;;;;;;;;;4976347;28;20045;-87
2022/06/09 10:13:31;;;;;;;9.77;2.00;;;;;;;;;;4959177;28;20101;-86
2022/06/09 10:15:57;;;;;;;7.18;1.33;;;;;;;;;;4959114;28;20118;-87
2022/06/09 10:18:23;;;;;;;2.88;0.90;;;;;;;;;;4975404;28;20027;-88
2022/06/09 10:20:52;;;;;;;7.75;1.38;;;;;;;;;;4988278;28;20023;-86
2022/06/09 10:23:22;;;;;;;9.18;1.75;;;;;;;;;;4969283;28;20118;-88
2022/06/09 10:25:51;;;;;;;9.95;1.45;;;;;;;;;;4976677;28;20029;-87
2022/06/09 10:28:33;;;;;;;6.20;1.60;;;;;;;;;;4975851;28;20143;-87
2022/06/09 10:31:06;;;;;;;3.65;1.70;;;;;;;;;;4975707;28;20023;-86
2022/06/09 10:33:44;;;;;;;6.38;1.90;;;;;;;;;;4976822;28;20037;-88
2022/06/09 10:36:16;;;;;;;5.53;2.28;;;;;;;;;;4958558;28;20053;-88
2022/06/09 10:38:44;;;;;;;12.38;2.38;;;;;;;;;;4955090;28;20042;-87
2022/06/09 10:41:12;;;;;;;11.95;2.33;;;;;;;;;;4956260;28;20114;-86
2022/06/09 10:43:41;;;;;;;5.95;2.50;;;;;;;;;;4955830;28;20024;-88
2022/06/09 10:46:10;;;;;;;8.50;2.83;;;;;;;;;;4960625;28;20084;-87
2022/06/09 10:57:06;;;;;;;4.10;1.40;;;;;;;;;;4990798;28;20536;-87
2022/06/09 10:59:44;;;;;;;7.05;2.13;;;;;;;;;;4959019;28;20042;-87
2022/06/09 11:02:23;;;;;;;4.13;1.77;;;;;;;;;;4960095;28;20109;-86
2022/06/09 11:04:51;;;;;;;7.53;1.73;;;;;;;;;;4976204;28;20392;-86
2022/06/09 11:07:27;;;;;;;9.93;1.85;;;;;;;;;;4958013;28;20033;-88
2022/06/09 11:09:58;;;;;;;4.93;1.63;;;;;;;;;;4958833;28;20039;-86
2022/06/09 11:12:42;;;;;;;7.28;1.92;;;;;;;;;;4958197;28;20432;-85
2022/06/09 11:15:15;;;;;;;8.23;1.60;;;;;;;;;;4968273;28;20027;-86
2022/06/09 11:17:50;;;;;;;5.50;2.30;;;;;;;;;;4956741;28;20038;-85
2022/06/09 11:20:23;;;;;;;6.05;1.65;;;;;;;;;;4973910;28;20036;-89
2022/06/09 11:22:48;;;;;;;7.43;1.80;;;;;;;;;;4973597;28;20106;-86
2022/06/09 11:25:30;;;;;;;8.20;1.65;;;;;;;;;;4956489;28;20133;-86
2022/06/09 11:27:59;;;;;;;6.45;1.73;;;;;;;;;;4973741;28;20030;-87
2022/06/09 11:30:33;;;;;;;7.80;1.90;;;;;;;;;;4974398;28;20038;-87
2022/06/09 11:32:59;;;;;;;4.85;1.40;;;;;;;;;;4956790;28;20125;-87
2022/06/09 11:35:34;;;;;;;11.27;1.88;;;;;;;;;;4974668;28;20085;-86
2022/06/09 11:38:00;;;;;;;4.53;1.63;;;;;;;;;;4957916;28;20590;-87
2022/06/09 11:40:38;;;;;;;5.63;1.55;;;;;;;;;;4974772;28;20046;-87
2022/06/09 11:43:04;;;;;;;6.57;1.73;;;;;;;;;;4975155;28;20106;-84
2022/06/09 11:45:33;;;;;;;11.88;1.52;;;;;;;;;;4975361;28;20034;-87
2022/06/09 11:48:00;;;;;;;4.78;1.50;;;;;;;;;;4940814;28;20035;-85
2022/06/09 11:50:33;;;;;;;4.93;1.27;;;;;;;;;;4985179;28;20054;-86
2022/06/09 11:53:02;;;;;;;4.57;1.58;;;;;;;;;;4989643;28;20065;-86
2022/06/09 11:58:34;;;;;;;7.20;1.30;;;;;;;;;;4983365;28;20061;-88
2022/06/09 12:01:09;;;;;;;4.18;1.38;;;;;;;;;;4989894;28;20034;-88
2022/06/09 12:03:48;;;;;;;5.82;1.17;;;;;;;;;;4964895;28;20034;-86
2022/06/09 12:06:38;;;;;;;11.93;1.67;;;;;;;;;;4974755;28;20608;-87
2022/06/09 12:12:26;;;;;;;3.72;1.02;;;;;;;;;;4971364;28;20097;-87
2022/06/09 12:15:17;;;;;;;3.35;1.00;;;;;;;;;;4973533;28;20034;-86
2022/06/09 12:18:07;;;;;;;3.97;0.90;;;;;;;;;;4975623;28;20043;-86
2022/06/09 12:20:49;;;;;;;4.25;1.02;;;;;;;;;;4973646;28;20046;-88
2022/06/09 12:23:34;;;;;;;3.10;0.75;;;;;;;;;;4973484;28;20085;-87
2022/06/09 12:26:30;;;;;;;3.00;0.90;;;;;;;;;;4973508;28;20055;-86
2022/06/09 12:44:57;;;;;;;5.57;0.98;;;;;;;;;;4875368;29;20483;-86
2022/06/09 13:15:55;;;;;;;7.03;1.02;;;;;;;;;;4971072;28;20026;-89
2022/06/09 13:21:21;;;;;;;8.35;1.42;;;;;;;;;;4954088;28;20273;-85
2022/06/09 13:24:02;;;;;;;4.65;0.85;;;;;;;;;;4955391;28;20022;-87
2022/06/09 13:26:31;;;;;;;8.02;1.63;;;;;;;;;;4957732;28;20053;-87
2022/06/09 13:28:59;;;;;;;3.70;0.95;;;;;;;;;;4962438;28;20031;-86
2022/06/09 13:31:30;;;;;;;7.60;1.63;;;;;;;;;;4990978;28;20063;-87
2022/06/09 13:34:16;;;;;;;4.97;0.90;;;;;;;;;;4977066;28;20082;-85
2022/06/09 13:36:54;;;;;;;5.03;1.02;;;;;;;;;;4976221;28;20066;-85
2022/06/09 13:39:31;;;;;;;4.30;1.20;;;;;;;;;;4960690;28;20112;-85
2022/06/09 13:42:01;;;;;;;5.22;0.85;;;;;;;;;;4960163;28;20019;-85
2022/06/09 13:44:28;;;;;;;4.75;0.98;;;;;;;;;;4977479;28;20031;-85
2022/06/09 13:47:02;;;;;;;4.63;1.15;;;;;;;;;;4959456;28;20473;-86
2022/06/09 13:49:30;;;;;;;6.28;1.00;;;;;;;;;;4977369;28;20053;-85
2022/06/09 13:52:05;;;;;;;2.40;0.98;;;;;;;;;;4976798;28;20074;-86
2022/06/09 13:54:32;;;;;;;7.60;1.73;;;;;;;;;;4978265;28;20023;-86
2022/06/09 13:56:59;;;;;;;2.78;1.00;;;;;;;;;;4976821;28;20026;-86
2022/06/09 13:59:25;;;;;;;5.28;0.90;;;;;;;;;;4959879;28;20396;-86
2022/06/09 14:01:52;;;;;;;3.97;1.13;;;;;;;;;;4977102;28;20015;-84
2022/06/09 14:04:20;;;;;;;5.55;1.10;;;;;;;;;;4977383;28;20032;-86
2022/06/09 14:06:46;;;;;;;3.55;0.70;;;;;;;;;;4976653;28;20026;-86
2022/06/09 14:09:14;;;;;;;4.68;1.40;;;;;;;;;;4977329;28;20034;-86
2022/06/09 14:11:40;;;;;;;5.10;0.70;;;;;;;;;;4977031;28;20041;-85
2022/06/09 14:14:06;;;;;;;6.00;1.05;;;;;;;;;;4977044;28;20038;-87
2022/06/09 14:16:34;;;;;;;6.30;0.93;;;;;;;;;;4976060;28;20029;-86
2022/06/09 14:19:01;;;;;;;6.53;1.10;;;;;;;;;;4976502;28;20014;-85
2022/06/09 14:21:28;;;;;;;6.60;0.95;;;;;;;;;;4958703;28;20035;-86
2022/06/09 14:23:54;;;;;;;8.05;1.80;;;;;;;;;;4975907;28;20022;-88
2022/06/09 14:26:22;;;;;;;8.20;0.93;;;;;;;;;;4989437;28;20804;-85
2022/06/09 14:28:52;;;;;;;6.03;0.82;;;;;;;;;;4981144;28;20397;-86
2022/06/09 14:31:19;;;;;;;5.28;0.93;;;;;;;;;;4975774;28;20128;-86
2022/06/09 14:33:45;;;;;;;3.30;0.85;;;;;;;;;;4959030;28;20027;-85
2022/06/09 14:36:13;;;;;;;3.15;0.88;;;;;;;;;;4958789;28;20476;-84
2022/06/09 14:38:39;;;;;;;2.85;0.75;;;;;;;;;;4976647;28;20445;-84
2022/06/09 14:41:05;;;;;;;2.90;0.80;;;;;;;;;;4975977;28;20392;-85
2022/06/09 14:43:31;;;;;;;4.53;0.70;;;;;;;;;;4959249;28;20026;-84
2022/06/09 14:45:59;;;;;;;5.72;0.98;;;;;;;;;;4976441;28;20025;-85
2022/06/09 14:48:26;;;;;;;6.10;1.20;;;;;;;;;;4959306;28;20031;-84
2022/06/09 14:50:53;;;;;;;2.97;0.68;;;;;;;;;;4958800;28;20095;-85
2022/06/09 14:53:20;;;;;;;2.20;0.75;;;;;;;;;;4959324;28;20049;-84
2022/06/09 14:55:47;;;;;;;2.45;0.95;;;;;;;;;;4976484;28;20034;-83
2022/06/09 14:58:14;;;;;;;3.70;0.75;;;;;;;;;;4976091;28;20043;-84
2022/06/09 15:00:40;;;;;;;6.53;1.08;;;;;;;;;;4977505;28;20513;-84
2022/06/09 15:03:07;;;;;;;7.25;0.85;;;;;;;;;;4962856;28;20406;-85
2022/06/09 15:05:33;;;;;;;2.75;0.70;;;;;;;;;;4978177;28;20026;-86
2022/06/09 15:08:00;;;;;;;3.85;0.90;;;;;;;;;;4976184;28;20031;-86
2022/06/09 15:10:27;;;;;;;6.35;0.80;;;;;;;;;;4958107;28;20023;-85
2022/06/09 15:12:54;;;;;;;4.60;1.23;;;;;;;;;;4985290;28;20030;-85
2022/06/09 15:15:20;;;;;;;6.28;1.00;;;;;;;;;;4972876;28;20085;-85
2022/06/09 15:17:47;;;;;;;6.95;1.10;;;;;;;;;;4958019;28;20598;-86
2022/06/09 15:20:18;;;;;;;4.20;0.98;;;;;;;;;;4944184;29;20039;-85
2022/06/09 15:22:45;;;;;;;4.78;1.42;;;;;;;;;;4964293;28;20035;-86
2022/06/09 15:25:11;;;;;;;7.68;1.55;;;;;;;;;;4971064;28;20451;-86
2022/06/09 15:27:40;;;;;;;6.30;1.20;;;;;;;;;;4977028;28;20086;-86
2022/06/09 15:30:06;;;;;;;2.90;0.70;;;;;;;;;;4974710;28;20023;-86
2022/06/09 15:32:32;;;;;;;6.72;1.17;;;;;;;;;;4975409;28;20039;-86
2022/06/09 15:34:58;;;;;;;6.97;1.73;;;;;;;;;;4967134;28;20507;-84
2022/06/09 15:37:24;;;;;;;3.28;0.82;;;;;;;;;;4957928;28;20038;-86
2022/06/09 15:39:51;;;;;;;5.55;1.17;;;;;;;;;;4957727;28;20118;-86
2022/06/09 15:42:17;;;;;;;6.38;1.20;;;;;;;;;;4957026;28;20031;-86
2022/06/09 15:44:43;;;;;;;4.38;1.10;;;;;;;;;;4975173;28;20062;-86
2022/06/09 15:47:09;;;;;;;4.22;1.10;;;;;;;;;;4957913;28;20026;-86
2022/06/09 15:49:37;;;;;;;6.30;1.15;;;;;;;;;;4974494;28;20078;-86
2022/06/09 15:52:03;;;;;;;7.30;1.30;;;;;;;;;;4956761;28;20031;-86
2022/06/09 15:54:29;;;;;;;3.22;1.23;;;;;;;;;;4961590;28;20046;-82
2022/06/09 15:56:55;;;;;;;8.50;1.52;;;;;;;;;;4969002;28;20161;-85
2022/06/09 15:59:21;;;;;;;5.78;1.05;;;;;;;;;;4976209;28;20027;-83
2022/06/09 16:01:47;;;;;;;4.78;1.17;;;;;;;;;;4975600;28;20037;-86
2022/06/09 16:04:14;;;;;;;4.65;1.58;;;;;;;;;;4984598;28;20106;-84
2022/06/09 16:06:40;;;;;;;4.65;1.13;;;;;;;;;;4993927;28;20476;-86